Darstellungsparameter: Aktuell verwendete Einstellungen:
Skalierung der Graphiken ... ?
xyx+y,   Skalierungsfaktor:      Skalierung: Modus: x, Faktor: 1
Darstellungszeitraum ... ?
Vom - - bis: - -   Zeitraum: 09.11.2020 - 15.11.2020
Min/Max/Avg-Anzeige ... ?
Zeige MMA aktuell
Zeige MMA Monat
Zeige MMA alles
Zeige --A aktuell
Zeige --A Monat
Zeige --A alles
Keine MMA-Anzeige
MMA:
Minimum Maximum Average (ber die Originaldaten)
MMA-Basis: 14.04.2020 - 16.05.2020
Quicknavigation für Darstellung... ?
Tage:      1T, 2T, 3T, 5T -1T -2T -3T -5T +1T +2T +3T +5T
Wochen: 1W, 2W, 3W -1W -2W -3W +1W +2W +3W
Monate: 1M, 3M, 6M -1M -3M -6M +1M +3M +6M
Jahre:    1J, 3J, 5J, 10J -1J -3J -5J -10J +1J +3J +5J +10J
Nutze für die Darstellung ... ?
Originaldaten oder ...
Mittelwerte Minima Maxima auf...
Stundenbasis Tagesbasis Wochenbasis
Monatsbasis Jahresbasis      Datenbasis: Mittelwerte auf Stundenbasis
Darstellen als:
Statistik (Auto) Statistik J:M      Darstellung:
Zur Graphik,    zurück zur Übersicht aller Sensoren.
 
Tabellarische Datenbersicht: ?
 
Sensor: Nr:Datum:Temp:Abs-Feuchte:Windchill:Wind:
Aussen-T/F 1 09-11-2020 00:00:00 9.45 C 8.71 g/m*3 9.45 C 0 km/h
2 09-11-2020 01:00:00 9.4 C 8.68 g/m*3 9.4 C 0 km/h
3 09-11-2020 02:00:00 9.35833 C 8.66 g/m*3 9.36 C 0 km/h
4 09-11-2020 03:00:00 9.325 C 8.65 g/m*3 9.32 C 1.34167 km/h
5 09-11-2020 04:00:00 9.19167 C 8.61 g/m*3 9.19 C 0 km/h
6 09-11-2020 05:00:00 8.425 C 8.19 g/m*3 8.43 C 0 km/h
7 09-11-2020 06:00:00 8.3 C 8.15 g/m*3 8.3 C 0 km/h
8 09-11-2020 07:00:00 8.075 C 8.05 g/m*3 8.07 C 0 km/h
9 09-11-2020 08:00:00 8.35 C 8.2 g/m*3 8.35 C 0 km/h
10 09-11-2020 09:00:00 8.96667 C 8.53 g/m*3 8.97 C 0 km/h
11 09-11-2020 10:00:00 9.76667 C 9 g/m*3 9.77 C 0 km/h
12 09-11-2020 11:00:00 11.00833 C 9.81 g/m*3 11.01 C 0 km/h
13 09-11-2020 12:00:00 11.8 C 10.29 g/m*3 11.8 C 0 km/h
14 09-11-2020 13:00:00 13.08333 C 11.07 g/m*3 13.08 C 0 km/h
15 09-11-2020 14:00:00 13.675 C 10.94 g/m*3 13.68 C 0.53333 km/h
16 09-11-2020 15:00:00 13.21667 C 10.69 g/m*3 13.22 C 0.26667 km/h
17 09-11-2020 16:00:00 12.48333 C 10.29 g/m*3 12.48 C 0.26667 km/h
18 09-11-2020 17:00:00 11.51667 C 9.74 g/m*3 11.52 C 2.8 km/h
19 09-11-2020 18:00:00 10.46667 C 9.19 g/m*3 10.47 C 0.8 km/h
20 09-11-2020 19:00:00 9.66667 C 8.79 g/m*3 9.67 C 0 km/h
21 09-11-2020 20:00:00 9.08333 C 8.51 g/m*3 9.08 C 0.4 km/h
22 09-11-2020 21:00:00 8.16667 C 8.02 g/m*3 8.17 C 0 km/h
23 09-11-2020 22:00:00 7.225 C 7.55 g/m*3 7.23 C 0 km/h
24 09-11-2020 23:00:00 6.63333 C 7.26 g/m*3 6.63 C 0 km/h
25 10-11-2020 00:00:00 6.11667 C 7.05 g/m*3 6.12 C 0 km/h
Sensor: Nr:Datum:Temp:Abs-Feuchte:Windchill:Wind:
Aussen-T/F 26 10-11-2020 01:00:00 6.175 C 7.12 g/m*3 6.18 C 0 km/h
27 10-11-2020 02:00:00 6.06667 C 7.07 g/m*3 6.07 C 0 km/h
28 10-11-2020 03:00:00 6.1 C 7.09 g/m*3 6.1 C 0 km/h
29 10-11-2020 04:00:00 6.00833 C 7.04 g/m*3 6.01 C 0 km/h
30 10-11-2020 05:00:00 5.74167 C 6.92 g/m*3 5.74 C 0 km/h
31 10-11-2020 06:00:00 5.71667 C 6.91 g/m*3 5.72 C 0 km/h
32 10-11-2020 07:00:00 5.7 C 6.9 g/m*3 5.7 C 0 km/h
33 10-11-2020 08:00:00 5.70833 C 6.91 g/m*3 5.71 C 0.13333 km/h
34 10-11-2020 09:00:00 5.98333 C 7.08 g/m*3 5.98 C 0.13333 km/h
35 10-11-2020 10:00:00 6.49167 C 7.33 g/m*3 6.49 C 0 km/h
36 10-11-2020 11:00:00 7.49167 C 7.84 g/m*3 7.49 C 0 km/h
37 10-11-2020 12:00:00 8.10833 C 8.16 g/m*3 8.11 C 0 km/h
38 10-11-2020 13:00:00 8.65 C 8.45 g/m*3 8.65 C 0.13333 km/h
39 10-11-2020 14:00:00 9.78333 C 9.08 g/m*3 9.78 C 0 km/h
40 10-11-2020 15:00:00 10.25833 C 9.27 g/m*3 10.26 C 0 km/h
41 10-11-2020 16:00:00 9.625 C 8.84 g/m*3 9.63 C 0 km/h
42 10-11-2020 17:00:00 7.84167 C 7.84 g/m*3 7.84 C 0 km/h
43 10-11-2020 18:00:00 6.75 C 7.32 g/m*3 6.75 C 0 km/h
44 10-11-2020 19:00:00 6.66667 C 7.33 g/m*3 6.67 C 0 km/h
45 10-11-2020 20:00:00 6.58333 C 7.31 g/m*3 6.58 C 0 km/h
46 10-11-2020 21:00:00 7.16667 C 7.6 g/m*3 7.17 C 0 km/h
47 10-11-2020 22:00:00 7.54167 C 7.79 g/m*3 7.54 C 0 km/h
48 10-11-2020 23:00:00 7.725 C 7.88 g/m*3 7.73 C 0 km/h
49 11-11-2020 00:00:00 7.7 C 7.87 g/m*3 7.7 C 0 km/h
50 11-11-2020 01:00:00 7.76667 C 7.9 g/m*3 7.77 C 0 km/h
Sensor: Nr:Datum:Temp:Abs-Feuchte:Windchill:Wind:
Aussen-T/F 51 11-11-2020 02:00:00 7.76667 C 7.9 g/m*3 7.77 C 0 km/h
52 11-11-2020 03:00:00 7.79167 C 7.91 g/m*3 7.79 C 0 km/h
53 11-11-2020 04:00:00 7.825 C 7.93 g/m*3 7.83 C 0 km/h
54 11-11-2020 05:00:00 7.89167 C 7.96 g/m*3 7.89 C 0 km/h
55 11-11-2020 06:00:00 7.9 C 7.97 g/m*3 7.9 C 0 km/h
56 11-11-2020 07:00:00 7.91667 C 7.98 g/m*3 7.92 C 0 km/h
57 11-11-2020 08:00:00 8.08333 C 8.06 g/m*3 8.08 C 0 km/h
58 11-11-2020 09:00:00 8.40833 C 8.23 g/m*3 8.41 C 0 km/h
59 11-11-2020 10:00:00 9.05 C 8.54 g/m*3 9.05 C 0.53333 km/h
60 11-11-2020 11:00:00 9.9 C 8.8 g/m*3 8.97 C 7.64167 km/h
61 11-11-2020 12:00:00 10 C 8.74 g/m*3 10 C 1.46667 km/h
62 11-11-2020 13:00:00 10.69167 C 9.05 g/m*3 10.69 C 2.675 km/h
63 11-11-2020 14:00:00 11.29167 C 9.24 g/m*3 11.29 C 2.66667 km/h
64 11-11-2020 15:00:00 11.28333 C 9.16 g/m*3 11.28 C 5.89167 km/h
65 11-11-2020 16:00:00 10.95833 C 9.08 g/m*3 10.96 C 4.69167 km/h
66 11-11-2020 17:00:00 10.45833 C 8.8 g/m*3 10.46 C 4.15833 km/h
67 11-11-2020 18:00:00 9.675 C 8.47 g/m*3 8.5 C 8.59167 km/h
68 11-11-2020 19:00:00 9.05 C 8.23 g/m*3 7.41 C 10.46667 km/h
69 11-11-2020 20:00:00 8.775 C 8.08 g/m*3 8.78 C 3.6 km/h
70 11-11-2020 21:00:00 8.7 C 8.09 g/m*3 8.7 C 1.06667 km/h
71 11-11-2020 22:00:00 8.76667 C 8.16 g/m*3 8.77 C 0.13333 km/h
72 11-11-2020 23:00:00 8.8 C 8.18 g/m*3 8.8 C 0 km/h
73 12-11-2020 00:00:00 8.81667 C 8.19 g/m*3 8.82 C 0.8 km/h
74 12-11-2020 01:00:00 8.89167 C 8.23 g/m*3 8.89 C 0.26667 km/h
75 12-11-2020 02:00:00 8.9 C 8.23 g/m*3 8.9 C 0 km/h
Sensor: Nr:Datum:Temp:Abs-Feuchte:Windchill:Wind:
Aussen-T/F 76 12-11-2020 03:00:00 8.9 C 8.23 g/m*3 8.9 C 0 km/h
77 12-11-2020 04:00:00 8.925 C 8.32 g/m*3 8.93 C 0 km/h
78 12-11-2020 05:00:00 8.88333 C 8.31 g/m*3 8.88 C 0 km/h
79 12-11-2020 06:00:00 9.19167 C 8.39 g/m*3 9.19 C 3.33333 km/h
80 12-11-2020 07:00:00 9.6 C 8.44 g/m*3 9.6 C 4.54167 km/h
81 12-11-2020 08:00:00 9.975 C 8.54 g/m*3 9.98 C 2.4 km/h
82 12-11-2020 09:00:00 10.49167 C 8.76 g/m*3 10.49 C 3.46667 km/h
83 12-11-2020 10:00:00 11.175 C 9.08 g/m*3 11.18 C 1.86667 km/h
84 12-11-2020 11:00:00 11.86667 C 9.4 g/m*3 11.87 C 2.68333 km/h
85 12-11-2020 12:00:00 12.00833 C 9.22 g/m*3 12.01 C 10.625 km/h
86 12-11-2020 13:00:00 12.30833 C 8.97 g/m*3 12.31 C 11.69167 km/h
87 12-11-2020 14:00:00 12.475 C 8.93 g/m*3 12.48 C 6.98333 km/h
88 12-11-2020 15:00:00 12.11667 C 8.93 g/m*3 12.12 C 4.275 km/h
89 12-11-2020 16:00:00 11.525 C 8.34 g/m*3 11.53 C 6.55833 km/h
90 12-11-2020 17:00:00 9.48333 C 7.89 g/m*3 9.07 C 5.33333 km/h
91 12-11-2020 18:00:00 8.26667 C 7.57 g/m*3 8.27 C 4.8 km/h
92 12-11-2020 19:00:00 7.40833 C 7.24 g/m*3 7.41 C 1.06667 km/h
93 12-11-2020 20:00:00 6.775 C 7.12 g/m*3 6.78 C 2.26667 km/h
94 12-11-2020 21:00:00 5.9 C 6.72 g/m*3 5.9 C 0.4 km/h
95 12-11-2020 22:00:00 4.61667 C 6.22 g/m*3 4.62 C 0 km/h
96 12-11-2020 23:00:00 3.85 C 5.96 g/m*3 3.85 C 0 km/h
97 13-11-2020 00:00:00 3.35 C 5.78 g/m*3 3.35 C 0 km/h
98 13-11-2020 01:00:00 2.89167 C 5.63 g/m*3 2.89 C 0 km/h
99 13-11-2020 02:00:00 2.375 C 5.45 g/m*3 2.38 C 0.13333 km/h
100 13-11-2020 03:00:00 2.46667 C 5.51 g/m*3 2.47 C 0 km/h
Sensor: Nr:Datum:Temp:Abs-Feuchte:Windchill:Wind:
Aussen-T/F 101 13-11-2020 04:00:00 2.75833 C 5.63 g/m*3 2.76 C 0.4 km/h
102 13-11-2020 05:00:00 2.68333 C 5.59 g/m*3 2.68 C 0.53333 km/h
103 13-11-2020 06:00:00 2.6 C 5.61 g/m*3 2.6 C 0.26667 km/h
104 13-11-2020 07:00:00 2.63333 C 5.63 g/m*3 2.63 C 0.4 km/h
105 13-11-2020 08:00:00 2.7 C 5.65 g/m*3 2.7 C 0.53333 km/h
106 13-11-2020 09:00:00 2.875 C 5.72 g/m*3 2.88 C 1.46667 km/h
107 13-11-2020 10:00:00 3.38333 C 5.92 g/m*3 3.38 C 0.4 km/h
108 13-11-2020 11:00:00 4.525 C 6.41 g/m*3 4.53 C 0.53333 km/h
109 13-11-2020 12:00:00 5.60833 C 6.93 g/m*3 5.61 C 0 km/h
110 13-11-2020 13:00:00 8.175 C 8.19 g/m*3 8.18 C 0.8 km/h
111 13-11-2020 14:00:00 9.525 C 8.91 g/m*3 9.53 C 0.26667 km/h
112 13-11-2020 15:00:00 10.39167 C 9.3 g/m*3 10.39 C 0.4 km/h
113 13-11-2020 16:00:00 10.68333 C 9.33 g/m*3 10.68 C 0.13333 km/h
114 13-11-2020 17:00:00 10.775 C 9.38 g/m*3 10.78 C 0.26667 km/h
115 13-11-2020 18:00:00 11.18333 C 9.57 g/m*3 11.18 C 0.66667 km/h
116 13-11-2020 19:00:00 11.63333 C 9.81 g/m*3 11.63 C 2.13333 km/h
117 13-11-2020 20:00:00 11.875 C 9.83 g/m*3 11.88 C 1.33333 km/h
118 13-11-2020 21:00:00 11.54167 C 9.64 g/m*3 11.54 C 0.4 km/h
119 13-11-2020 22:00:00 11.30833 C 9.58 g/m*3 11.31 C 0.66667 km/h
120 13-11-2020 23:00:00 10.91667 C 9.36 g/m*3 10.92 C 0 km/h
121 14-11-2020 00:00:00 10.45833 C 9.17 g/m*3 10.46 C 0.53333 km/h
122 14-11-2020 01:00:00 10.38333 C 9.18 g/m*3 10.38 C 1.06667 km/h
123 14-11-2020 02:00:00 10.81667 C 9.42 g/m*3 10.82 C 2 km/h
124 14-11-2020 03:00:00 10.55 C 9.15 g/m*3 10.55 C 2.13333 km/h
125 14-11-2020 04:00:00 10.01667 C 8.84 g/m*3 10.02 C 3.06667 km/h
Sensor: Nr:Datum:Temp:Abs-Feuchte:Windchill:Wind:
Aussen-T/F 126 14-11-2020 05:00:00 8.975 C 8.24 g/m*3 8.98 C 1.6 km/h
127 14-11-2020 06:00:00 7.79167 C 7.72 g/m*3 7.79 C 0 km/h
128 14-11-2020 07:00:00 7.18333 C 7.5 g/m*3 7.18 C 0.26667 km/h
129 14-11-2020 08:00:00 7.05833 C 7.47 g/m*3 7.06 C 0 km/h
130 14-11-2020 09:00:00 7.43333 C 7.7 g/m*3 7.43 C 0 km/h
131 14-11-2020 10:00:00 8.775 C 8.45 g/m*3 8.78 C 0.13333 km/h
132 14-11-2020 11:00:00 11.16667 C 9.84 g/m*3 11.17 C 0.26667 km/h
133 14-11-2020 12:00:00 13.025 C 10.51 g/m*3 13.03 C 0.26667 km/h
134 14-11-2020 13:00:00 14.58333 C 10.54 g/m*3 14.58 C 6.05 km/h
135 14-11-2020 14:00:00 14.99167 C 10.34 g/m*3 14.99 C 4.00833 km/h
136 14-11-2020 15:00:00 14.1 C 10.23 g/m*3 14.1 C 3.6 km/h
137 14-11-2020 16:00:00 13.08333 C 9.94 g/m*3 13.08 C 5.06667 km/h
138 14-11-2020 17:00:00 11.71667 C 9.41 g/m*3 11.72 C 2.4 km/h
139 14-11-2020 18:00:00 10.75 C 9.11 g/m*3 10.75 C 0 km/h
140 14-11-2020 19:00:00 10.19167 C 8.9 g/m*3 10.19 C 2.13333 km/h
141 14-11-2020 20:00:00 9.41667 C 8.53 g/m*3 9.42 C 0 km/h
142 14-11-2020 21:00:00 9.50833 C 8.72 g/m*3 9.51 C 0 km/h
143 14-11-2020 22:00:00 9.48333 C 8.73 g/m*3 9.48 C 0.26667 km/h
144 14-11-2020 23:00:00 9.64167 C 8.84 g/m*3 9.64 C 1.46667 km/h
145 15-11-2020 00:00:00 10.375 C 9.28 g/m*3 10.38 C 0.66667 km/h
146 15-11-2020 01:00:00 10.325 C 9.21 g/m*3 10.33 C 0.93333 km/h
147 15-11-2020 02:00:00 10.775 C 9.47 g/m*3 10.78 C 1.2 km/h
148 15-11-2020 03:00:00 11.08333 C 9.49 g/m*3 11.08 C 0.4 km/h
149 15-11-2020 04:00:00 10.84167 C 9.32 g/m*3 10.84 C 1.2 km/h
150 15-11-2020 05:00:00 11.31667 C 9.51 g/m*3 11.32 C 1.875 km/h
Sensor: Nr:Datum:Temp:Abs-Feuchte:Windchill:Wind:
Aussen-T/F 151 15-11-2020 06:00:00 12.19167 C 9.7 g/m*3 12.19 C 3.21667 km/h
152 15-11-2020 07:00:00 12.20833 C 9.55 g/m*3 12.21 C 2.4 km/h
153 15-11-2020 08:00:00 11.31667 C 9.29 g/m*3 11.32 C 0 km/h
154 15-11-2020 09:00:00 11.43333 C 9.51 g/m*3 11.43 C 1.6 km/h
155 15-11-2020 10:00:00 13.2 C 10.1 g/m*3 13.2 C 2 km/h
156 15-11-2020 11:00:00 14.93333 C 10.38 g/m*3 14.93 C 6.84167 km/h
157 15-11-2020 12:00:00 16.325 C 10.57 g/m*3 16.33 C 8.475 km/h
158 15-11-2020 13:00:00 17.43333 C 10.58 g/m*3 17.43 C 6.98333 km/h
159 15-11-2020 14:00:00 17.85833 C 10.31 g/m*3 17.86 C 6.43333 km/h
160 15-11-2020 15:00:00 17.325 C 10.19 g/m*3 17.33 C 4.54167 km/h
161 15-11-2020 16:00:00 16.125 C 9.96 g/m*3 16.13 C 3.60833 km/h
162 15-11-2020 17:00:00 15.74167 C 10.04 g/m*3 15.74 C 4.15 km/h
163 15-11-2020 18:00:00 14.60833 C 10.83 g/m*3 14.61 C 5.21667 km/h
164 15-11-2020 19:00:00 13.56667 C 10.73 g/m*3 13.57 C 6.15833 km/h
165 15-11-2020 20:00:00 13.59167 C 10.71 g/m*3 13.59 C 10.05 km/h
166 15-11-2020 21:00:00 11.79167 C 9.55 g/m*3 11.79 C 6.43333 km/h
167 15-11-2020 22:00:00 10.93333 C 9.37 g/m*3 10.93 C 2.13333 km/h
168 15-11-2020 23:00:00 11.21667 C 9.1 g/m*3 11.22 C 9.54167 km/h

Maximal/Minimal-Werte vom 14.04.2020 - 16.05.2020

Sensor Min Max Avg
Temp
(Aussen-T/F)
-0.1 °C
15-04-2020  06:55:00
26.2 °C
17-04-2020  18:05:00
11.98 °C

Die Daten stammen von einer Davis Vantage Pro 2 Wetter-Station und werden unter Linux mit der Software wview2wettercgi und aufbereitet. Alle Angaben erfolgen ohne Gewähr für ihre Vollständigkeit oder Richtigkeit.
Kontakt: Rainer Krienke krienke@uni-koblenz.de . Meine Webseiten an der Uni Koblenz oder privat.
Version: $Revision: 0.78 $